EGACEGBB

Guest
Details From EGAC - Belfast City
To EGBB - Birmingham
Flight Number -
Tags generated
Created
Modified
Stats Distance 196 nm / 363 km
Max Altitude 22,700 ft / 6,919 m
Waypoints 3
Social Downloads 1
Likes 0
Share VATSIM

Download

Looking for another format? Having issues loading an existing format? Contact us
Advertisement - Login to hide

Notes

Basic altitude profile: - Ascent Rate: 3000ft/min - Ascent Speed: 300kts - Cruise Altitude: 23000ft - Cruise Speed: 350kts - Descent Rate: 2500ft/min - Descent Speed: 330kts Options: - Use NATs: yes - Use PACOTS: yes - Use low airways: yes - Use high airways: yes

Route

EGAC BABRA EGBB

ID Type Via Altitude Latitude Longitude Leg Dist Tot Dist Heading (true) Name
O EGAC APT - 0 ft / 0 m 54.61811˚ -5.87258˚ - 0 nm - Belfast City
BABRA FIX - 22,700 ft / 6,919 m 53.62771˚ -3.94656˚ 90 nm 90 nm 130° / 132° -
O EGBB APT - 0 ft / 0 m 52.45597˚ -1.75038˚ 106 nm 196 nm 131° / 132° Birmingham

Altitude Profile

Advertisement - Login to hide

Weather


0- 5 10 15 20 25 30 35+ Temperature / ° C

Clouds and Precipitation
Forecast for 2018-06-24 00:00 UTC. Updated 6 hours ago

Ground ~20,000 ft ~40,000 ft Winds

EGAC

Details ICAO EGAC (BHD)
Name Belfast City
Region United Kingdom
Timezone Europe/London (UTC+1.0)
Stats Elevation 15 ft / 5 m (AMSL)
Location 54.618108° -5.872575°
Runways 1
Magnetic Variation 3.002° W

METAR

EGAC 240320Z AUTO 00000KT 9999 NCD 08/07 Q1026

Decode

TAF

Not found

Departure Runways

ID Width Length Bearing (true) Bearing (mag) Surface Threshold Offset Overrun Length
04 148 ft / 45 m 6,009 ft / 1,832 m 34.93° 37.93° Asphalt 302 ft / 92 m 0 ft / 0 m
22 148 ft / 45 m 6,009 ft / 1,832 m 214.94° 217.94° Asphalt 0 ft / 0 m 0 ft / 0 m

EGBB

Details ICAO EGBB (BHX)
Name Birmingham
Region United Kingdom
Timezone Europe/London (UTC+1.0)
Stats Elevation 327 ft / 100 m (AMSL)
Location 52.455966° -1.750378°
Runways 1
Magnetic Variation 1.060° W

METAR

EGBB 240320Z 33004KT CAVOK 11/06 Q1026

Decode

TAF

TAF EGBB 232259Z 2400/2424 34004KT CAVOK

Decode

Destination Runways

ID Width Length Bearing (true) Bearing (mag) Surface Threshold Offset Overrun Length
15 151 ft / 46 m 8,477 ft / 2,584 m 145.87° 146.93° Asphalt 925 ft / 282 m 0 ft / 0 m
33 151 ft / 46 m 8,477 ft / 2,584 m 325.89° 326.95° Asphalt 958 ft / 292 m 0 ft / 0 m

Approach Navaids

Runway Type Ident Frequency Range Bearing (true) Bearing (mag) Slope Elevation
15 Localiser IBIR 110.10 MHz 18 nm / 33 km 145.89° 146.95° - 325 ft / 99 m (AMSL)
15 Glidescope IBIR 110.10 MHz 10 nm / 19 km 145.88° 146.94° 3.00° 325 ft / 99 m (AMSL)
15 DME IBIR 110.10 MHz 18 nm / 33 km - - - 349 ft / 106 m (AMSL)
33 Localiser IBM 110.10 MHz 18 nm / 33 km 325.87° 326.93° - 325 ft / 99 m (AMSL)
33 Glidescope IBM 110.10 MHz 10 nm / 19 km 325.88° 326.94° 3.00° 325 ft / 99 m (AMSL)
33 DME IBM 110.10 MHz 18 nm / 33 km - - - 327 ft / 100 m (AMSL)

Popular Alternatives